sensor_id;sensor_type;location;lat;lon;timestamp;temperature;humidity
40960;DHT22;27842;52.272;8.052;2023-09-19T00:01:33;18.40;97.30
40960;DHT22;27842;52.272;8.052;2023-09-19T00:03:59;18.40;97.60
40960;DHT22;27842;52.272;8.052;2023-09-19T00:06:25;18.40;97.20
40960;DHT22;27842;52.272;8.052;2023-09-19T00:08:53;18.40;97.30
40960;DHT22;27842;52.272;8.052;2023-09-19T00:11:20;18.40;97.30
40960;DHT22;27842;52.272;8.052;2023-09-19T00:13:47;18.40;97.30
40960;DHT22;27842;52.272;8.052;2023-09-19T00:16:15;18.40;97.30
40960;DHT22;27842;52.272;8.052;2023-09-19T00:18:41;18.40;97.20
40960;DHT22;27842;52.272;8.052;2023-09-19T00:21:07;18.40;97.20
40960;DHT22;27842;52.272;8.052;2023-09-19T00:23:33;18.40;97.20
40960;DHT22;27842;52.272;8.052;2023-09-19T00:25:59;18.40;97.20
40960;DHT22;27842;52.272;8.052;2023-09-19T00:28:26;18.40;97.20
40960;DHT22;27842;52.272;8.052;2023-09-19T00:30:51;18.40;97.10
40960;DHT22;27842;52.272;8.052;2023-09-19T00:33:18;18.40;97.20
40960;DHT22;27842;52.272;8.052;2023-09-19T00:36:02;18.40;97.20
40960;DHT22;27842;52.272;8.052;2023-09-19T00:38:30;18.40;97.10
40960;DHT22;27842;52.272;8.052;2023-09-19T00:40:57;18.30;97.10
40960;DHT22;27842;52.272;8.052;2023-09-19T00:43:23;18.40;97.20
40960;DHT22;27842;52.272;8.052;2023-09-19T00:45:52;18.30;97.10
40960;DHT22;27842;52.272;8.052;2023-09-19T00:48:19;18.30;97.00
40960;DHT22;27842;52.272;8.052;2023-09-19T00:50:46;18.30;97.10
40960;DHT22;27842;52.272;8.052;2023-09-19T00:53:15;18.30;97.10
40960;DHT22;27842;52.272;8.052;2023-09-19T00:55:44;18.30;97.00
40960;DHT22;27842;52.272;8.052;2023-09-19T00:58:11;18.30;96.90
40960;DHT22;27842;52.272;8.052;2023-09-19T01:00:37;18.20;96.90
40960;DHT22;27842;52.272;8.052;2023-09-19T01:03:03;18.30;96.90
40960;DHT22;27842;52.272;8.052;2023-09-19T01:05:33;18.30;96.80
40960;DHT22;27842;52.272;8.052;2023-09-19T01:07:58;18.30;96.70
40960;DHT22;27842;52.272;8.052;2023-09-19T01:10:24;18.30;96.70
40960;DHT22;27842;52.272;8.052;2023-09-19T01:13:21;18.20;96.70
40960;DHT22;27842;52.272;8.052;2023-09-19T01:16:11;18.20;96.60
40960;DHT22;27842;52.272;8.052;2023-09-19T01:18:43;18.20;96.70
40960;DHT22;27842;52.272;8.052;2023-09-19T01:21:37;18.20;96.70
40960;DHT22;27842;52.272;8.052;2023-09-19T01:30:08;18.20;96.40
40960;DHT22;27842;52.272;8.052;2023-09-19T01:32:34;18.10;96.40
40960;DHT22;27842;52.272;8.052;2023-09-19T01:35:00;18.10;96.50
40960;DHT22;27842;52.272;8.052;2023-09-19T01:37:30;18.10;96.50
40960;DHT22;27842;52.272;8.052;2023-09-19T01:40:08;18.10;96.50
40960;DHT22;27842;52.272;8.052;2023-09-19T01:43:20;18.00;96.50
40960;DHT22;27842;52.272;8.052;2023-09-19T01:46:14;18.00;96.40
40960;DHT22;27842;52.272;8.052;2023-09-19T01:51:44;18.00;96.40
40960;DHT22;27842;52.272;8.052;2023-09-19T01:54:12;18.00;96.40
40960;DHT22;27842;52.272;8.052;2023-09-19T01:56:59;18.00;96.30
40960;DHT22;27842;52.272;8.052;2023-09-19T01:59:34;18.00;96.40
40960;DHT22;27842;52.272;8.052;2023-09-19T02:02:01;17.90;96.40
40960;DHT22;27842;52.272;8.052;2023-09-19T02:04:27;17.90;96.40
40960;DHT22;27842;52.272;8.052;2023-09-19T02:06:53;17.90;96.50
40960;DHT22;27842;52.272;8.052;2023-09-19T02:09:19;17.90;96.40
40960;DHT22;27842;52.272;8.052;2023-09-19T02:11:45;17.90;96.50
40960;DHT22;27842;52.272;8.052;2023-09-19T02:14:11;17.90;96.50
40960;DHT22;27842;52.272;8.052;2023-09-19T02:16:37;17.90;96.40
40960;DHT22;27842;52.272;8.052;2023-09-19T02:19:03;17.80;96.40
40960;DHT22;27842;52.272;8.052;2023-09-19T02:21:31;17.90;96.40
40960;DHT22;27842;52.272;8.052;2023-09-19T02:23:57;17.90;96.40
40960;DHT22;27842;52.272;8.052;2023-09-19T02:26:24;17.80;96.40
40960;DHT22;27842;52.272;8.052;2023-09-19T02:28:50;17.80;96.40
40960;DHT22;27842;52.272;8.052;2023-09-19T02:31:15;17.80;96.40
40960;DHT22;27842;52.272;8.052;2023-09-19T02:33:42;17.80;96.50
40960;DHT22;27842;52.272;8.052;2023-09-19T02:36:08;17.70;96.40
40960;DHT22;27842;52.272;8.052;2023-09-19T02:38:34;17.70;96.40
40960;DHT22;27842;52.272;8.052;2023-09-19T02:40:59;17.70;96.30
40960;DHT22;27842;52.272;8.052;2023-09-19T02:43:25;17.70;96.40
40960;DHT22;27842;52.272;8.052;2023-09-19T02:45:51;17.70;96.40
40960;DHT22;27842;52.272;8.052;2023-09-19T02:48:19;17.70;96.40
40960;DHT22;27842;52.272;8.052;2023-09-19T02:50:44;17.60;96.40
40960;DHT22;27842;52.272;8.052;2023-09-19T02:53:10;17.60;96.40
40960;DHT22;27842;52.272;8.052;2023-09-19T02:55:38;17.60;96.40
40960;DHT22;27842;52.272;8.052;2023-09-19T02:58:06;17.60;96.40
40960;DHT22;27842;52.272;8.052;2023-09-19T03:00:39;17.60;96.40
40960;DHT22;27842;52.272;8.052;2023-09-19T03:03:07;17.50;96.40
40960;DHT22;27842;52.272;8.052;2023-09-19T03:05:34;17.50;96.40
40960;DHT22;27842;52.272;8.052;2023-09-19T03:08:00;17.50;96.40
40960;DHT22;27842;52.272;8.052;2023-09-19T03:10:29;17.50;96.40
40960;DHT22;27842;52.272;8.052;2023-09-19T03:12:57;17.50;96.30
40960;DHT22;27842;52.272;8.052;2023-09-19T03:15:23;17.40;96.30
40960;DHT22;27842;52.272;8.052;2023-09-19T03:17:49;17.40;96.40
40960;DHT22;27842;52.272;8.052;2023-09-19T03:20:15;17.40;96.40
40960;DHT22;27842;52.272;8.052;2023-09-19T03:22:45;17.30;96.40
40960;DHT22;27842;52.272;8.052;2023-09-19T03:25:11;17.30;96.40
40960;DHT22;27842;52.272;8.052;2023-09-19T03:27:38;17.30;96.40
40960;DHT22;27842;52.272;8.052;2023-09-19T03:30:05;17.30;96.40
40960;DHT22;27842;52.272;8.052;2023-09-19T03:32:43;17.20;96.40
40960;DHT22;27842;52.272;8.052;2023-09-19T03:35:09;17.20;96.40
40960;DHT22;27842;52.272;8.052;2023-09-19T03:37:34;17.30;96.40
40960;DHT22;27842;52.272;8.052;2023-09-19T03:40:00;17.20;96.30
40960;DHT22;27842;52.272;8.052;2023-09-19T03:42:30;17.20;96.30
40960;DHT22;27842;52.272;8.052;2023-09-19T03:44:56;17.30;96.40
40960;DHT22;27842;52.272;8.052;2023-09-19T03:47:24;17.20;96.30
40960;DHT22;27842;52.272;8.052;2023-09-19T03:49:50;17.20;96.30
40960;DHT22;27842;52.272;8.052;2023-09-19T03:52:17;17.10;96.30
40960;DHT22;27842;52.272;8.052;2023-09-19T03:54:42;17.10;96.40
40960;DHT22;27842;52.272;8.052;2023-09-19T03:57:08;17.10;96.30
40960;DHT22;27842;52.272;8.052;2023-09-19T03:59:34;17.10;96.30
40960;DHT22;27842;52.272;8.052;2023-09-19T04:02:01;17.10;96.30
40960;DHT22;27842;52.272;8.052;2023-09-19T04:04:27;17.00;96.30
40960;DHT22;27842;52.272;8.052;2023-09-19T04:06:54;17.00;96.30
40960;DHT22;27842;52.272;8.052;2023-09-19T04:09:20;17.00;96.30
40960;DHT22;27842;52.272;8.052;2023-09-19T04:11:46;17.00;96.30
40960;DHT22;27842;52.272;8.052;2023-09-19T04:14:11;17.00;96.30
40960;DHT22;27842;52.272;8.052;2023-09-19T04:16:37;16.90;96.30
40960;DHT22;27842;52.272;8.052;2023-09-19T04:19:04;16.90;96.30
40960;DHT22;27842;52.272;8.052;2023-09-19T04:21:30;16.90;96.30
40960;DHT22;27842;52.272;8.052;2023-09-19T04:23:56;16.80;96.30
40960;DHT22;27842;52.272;8.052;2023-09-19T04:26:22;16.90;96.30
40960;DHT22;27842;52.272;8.052;2023-09-19T04:28:48;16.90;96.10
40960;DHT22;27842;52.272;8.052;2023-09-19T04:31:13;16.90;96.10
40960;DHT22;27842;52.272;8.052;2023-09-19T04:33:39;16.80;96.20
40960;DHT22;27842;52.272;8.052;2023-09-19T04:36:05;16.90;96.10
40960;DHT22;27842;52.272;8.052;2023-09-19T04:38:33;16.90;96.10
40960;DHT22;27842;52.272;8.052;2023-09-19T04:40:59;16.80;96.10
40960;DHT22;27842;52.272;8.052;2023-09-19T04:43:25;16.80;96.10
40960;DHT22;27842;52.272;8.052;2023-09-19T04:45:51;16.80;96.40
40960;DHT22;27842;52.272;8.052;2023-09-19T04:48:21;16.80;96.10
40960;DHT22;27842;52.272;8.052;2023-09-19T04:50:48;16.80;96.10
40960;DHT22;27842;52.272;8.052;2023-09-19T04:53:14;16.70;96.10
40960;DHT22;27842;52.272;8.052;2023-09-19T04:55:40;16.70;96.10
40960;DHT22;27842;52.272;8.052;2023-09-19T04:58:06;16.70;96.10
40960;DHT22;27842;52.272;8.052;2023-09-19T05:00:31;16.70;96.10
40960;DHT22;27842;52.272;8.052;2023-09-19T05:03:00;16.70;96.10
40960;DHT22;27842;52.272;8.052;2023-09-19T05:05:26;16.70;96.40
40960;DHT22;27842;52.272;8.052;2023-09-19T05:07:52;16.70;96.00
40960;DHT22;27842;52.272;8.052;2023-09-19T05:10:19;16.70;95.90
40960;DHT22;27842;52.272;8.052;2023-09-19T05:12:45;16.70;95.90
40960;DHT22;27842;52.272;8.052;2023-09-19T05:15:13;16.70;95.90
40960;DHT22;27842;52.272;8.052;2023-09-19T05:17:44;16.70;95.90
40960;DHT22;27842;52.272;8.052;2023-09-19T05:20:12;16.70;95.80
40960;DHT22;27842;52.272;8.052;2023-09-19T05:22:41;16.70;95.80
40960;DHT22;27842;52.272;8.052;2023-09-19T05:25:11;16.70;95.70
40960;DHT22;27842;52.272;8.052;2023-09-19T05:27:42;16.70;95.70
40960;DHT22;27842;52.272;8.052;2023-09-19T05:30:08;16.70;95.70
40960;DHT22;27842;52.272;8.052;2023-09-19T05:32:33;16.60;95.60
40960;DHT22;27842;52.272;8.052;2023-09-19T05:34:59;16.60;95.70
40960;DHT22;27842;52.272;8.052;2023-09-19T05:37:25;16.60;95.70
40960;DHT22;27842;52.272;8.052;2023-09-19T05:39:51;16.60;95.70
40960;DHT22;27842;52.272;8.052;2023-09-19T05:42:18;16.60;95.60
40960;DHT22;27842;52.272;8.052;2023-09-19T05:44:44;16.60;95.60
40960;DHT22;27842;52.272;8.052;2023-09-19T05:47:09;16.50;95.60
40960;DHT22;27842;52.272;8.052;2023-09-19T05:49:35;16.60;95.50
40960;DHT22;27842;52.272;8.052;2023-09-19T05:52:07;16.50;95.50
40960;DHT22;27842;52.272;8.052;2023-09-19T05:54:33;16.40;95.40
40960;DHT22;27842;52.272;8.052;2023-09-19T05:57:00;16.50;95.50
40960;DHT22;27842;52.272;8.052;2023-09-19T05:59:25;16.40;95.50
40960;DHT22;27842;52.272;8.052;2023-09-19T06:01:51;16.40;95.50
40960;DHT22;27842;52.272;8.052;2023-09-19T06:04:17;16.40;95.50
40960;DHT22;27842;52.272;8.052;2023-09-19T06:06:44;16.40;95.40
40960;DHT22;27842;52.272;8.052;2023-09-19T06:09:10;16.40;95.40
40960;DHT22;27842;52.272;8.052;2023-09-19T06:11:36;16.40;95.40
40960;DHT22;27842;52.272;8.052;2023-09-19T06:14:02;16.40;95.30
40960;DHT22;27842;52.272;8.052;2023-09-19T06:16:31;16.40;95.30
40960;DHT22;27842;52.272;8.052;2023-09-19T06:19:00;16.50;95.20
40960;DHT22;27842;52.272;8.052;2023-09-19T06:21:27;16.40;95.20
40960;DHT22;27842;52.272;8.052;2023-09-19T06:23:53;16.40;95.10
40960;DHT22;27842;52.272;8.052;2023-09-19T06:26:19;16.40;95.10
40960;DHT22;27842;52.272;8.052;2023-09-19T06:28:45;16.40;95.10
40960;DHT22;27842;52.272;8.052;2023-09-19T06:31:10;16.50;95.10
40960;DHT22;27842;52.272;8.052;2023-09-19T06:33:39;16.40;95.30
40960;DHT22;27842;52.272;8.052;2023-09-19T06:36:08;16.50;94.70
40960;DHT22;27842;52.272;8.052;2023-09-19T06:38:34;16.50;94.90
40960;DHT22;27842;52.272;8.052;2023-09-19T06:41:00;16.50;94.70
40960;DHT22;27842;52.272;8.052;2023-09-19T06:43:27;16.50;94.80
40960;DHT22;27842;52.272;8.052;2023-09-19T06:45:53;16.50;94.80
40960;DHT22;27842;52.272;8.052;2023-09-19T06:48:20;16.50;94.70
40960;DHT22;27842;52.272;8.052;2023-09-19T06:50:46;16.60;94.70
40960;DHT22;27842;52.272;8.052;2023-09-19T06:53:13;16.60;94.70
40960;DHT22;27842;52.272;8.052;2023-09-19T06:55:39;16.60;94.60
40960;DHT22;27842;52.272;8.052;2023-09-19T06:58:05;16.70;94.50
40960;DHT22;27842;52.272;8.052;2023-09-19T07:00:31;16.70;94.50
40960;DHT22;27842;52.272;8.052;2023-09-19T07:03:04;16.70;94.50
40960;DHT22;27842;52.272;8.052;2023-09-19T07:05:36;16.70;94.50
40960;DHT22;27842;52.272;8.052;2023-09-19T07:08:03;16.70;94.30
40960;DHT22;27842;52.272;8.052;2023-09-19T07:10:29;16.70;94.30
40960;DHT22;27842;52.272;8.052;2023-09-19T07:13:03;16.70;94.30
40960;DHT22;27842;52.272;8.052;2023-09-19T07:15:30;16.70;94.30
40960;DHT22;27842;52.272;8.052;2023-09-19T07:17:59;16.70;94.30
40960;DHT22;27842;52.272;8.052;2023-09-19T07:20:26;16.70;94.20
40960;DHT22;27842;52.272;8.052;2023-09-19T07:22:53;16.70;94.20
40960;DHT22;27842;52.272;8.052;2023-09-19T07:25:20;16.80;94.20
40960;DHT22;27842;52.272;8.052;2023-09-19T07:27:46;16.80;94.20
40960;DHT22;27842;52.272;8.052;2023-09-19T07:30:12;16.80;94.20
40960;DHT22;27842;52.272;8.052;2023-09-19T07:32:39;16.80;94.10
40960;DHT22;27842;52.272;8.052;2023-09-19T07:35:06;16.90;94.00
40960;DHT22;27842;52.272;8.052;2023-09-19T07:37:32;17.00;94.00
40960;DHT22;27842;52.272;8.052;2023-09-19T07:40:02;17.00;93.90
40960;DHT22;27842;52.272;8.052;2023-09-19T07:42:35;17.00;93.80
40960;DHT22;27842;52.272;8.052;2023-09-19T07:45:02;17.10;93.80
40960;DHT22;27842;52.272;8.052;2023-09-19T07:47:28;17.20;93.60
40960;DHT22;27842;52.272;8.052;2023-09-19T07:49:55;17.20;93.70
40960;DHT22;27842;52.272;8.052;2023-09-19T07:52:21;17.20;93.70
40960;DHT22;27842;52.272;8.052;2023-09-19T07:54:48;17.20;93.60
40960;DHT22;27842;52.272;8.052;2023-09-19T07:57:15;17.30;93.60
40960;DHT22;27842;52.272;8.052;2023-09-19T07:59:41;17.30;93.60
40960;DHT22;27842;52.272;8.052;2023-09-19T08:02:07;17.30;93.50
40960;DHT22;27842;52.272;8.052;2023-09-19T08:04:35;17.30;93.60
40960;DHT22;27842;52.272;8.052;2023-09-19T08:07:00;17.30;93.40
40960;DHT22;27842;52.272;8.052;2023-09-19T08:09:29;17.30;93.50
40960;DHT22;27842;52.272;8.052;2023-09-19T08:11:58;17.40;93.50
40960;DHT22;27842;52.272;8.052;2023-09-19T08:14:24;17.30;93.50
40960;DHT22;27842;52.272;8.052;2023-09-19T08:16:51;17.40;93.50
40960;DHT22;27842;52.272;8.052;2023-09-19T08:19:17;17.40;93.50
40960;DHT22;27842;52.272;8.052;2023-09-19T08:21:42;17.40;93.50
40960;DHT22;27842;52.272;8.052;2023-09-19T08:24:14;17.40;93.50
40960;DHT22;27842;52.272;8.052;2023-09-19T08:26:40;17.40;93.40
40960;DHT22;27842;52.272;8.052;2023-09-19T08:29:05;17.40;93.50
40960;DHT22;27842;52.272;8.052;2023-09-19T08:31:35;17.40;93.40
40960;DHT22;27842;52.272;8.052;2023-09-19T08:34:01;17.50;93.50
40960;DHT22;27842;52.272;8.052;2023-09-19T08:36:26;17.50;93.40
40960;DHT22;27842;52.272;8.052;2023-09-19T08:38:52;17.50;93.40
40960;DHT22;27842;52.272;8.052;2023-09-19T08:41:18;17.60;93.40
40960;DHT22;27842;52.272;8.052;2023-09-19T08:43:44;17.60;93.40
40960;DHT22;27842;52.272;8.052;2023-09-19T08:46:15;17.60;93.40
40960;DHT22;27842;52.272;8.052;2023-09-19T08:49:19;17.60;93.30
40960;DHT22;27842;52.272;8.052;2023-09-19T08:51:55;17.70;93.30
40960;DHT22;27842;52.272;8.052;2023-09-19T08:54:25;17.70;93.30
40960;DHT22;27842;52.272;8.052;2023-09-19T08:56:53;17.80;93.20
40960;DHT22;27842;52.272;8.052;2023-09-19T08:59:23;17.70;92.60
40960;DHT22;27842;52.272;8.052;2023-09-19T09:01:53;17.80;93.20
40960;DHT22;27842;52.272;8.052;2023-09-19T09:04:20;17.80;93.30
40960;DHT22;27842;52.272;8.052;2023-09-19T09:06:50;17.90;93.30
40960;DHT22;27842;52.272;8.052;2023-09-19T09:09:20;17.90;93.10
40960;DHT22;27842;52.272;8.052;2023-09-19T09:11:48;18.00;93.20
40960;DHT22;27842;52.272;8.052;2023-09-19T09:14:19;18.00;93.10
40960;DHT22;27842;52.272;8.052;2023-09-19T09:16:46;18.00;93.10
40960;DHT22;27842;52.272;8.052;2023-09-19T09:19:14;18.10;93.00
40960;DHT22;27842;52.272;8.052;2023-09-19T09:21:46;18.10;92.90
40960;DHT22;27842;52.272;8.052;2023-09-19T09:24:28;18.10;93.00
40960;DHT22;27842;52.272;8.052;2023-09-19T09:26:55;18.20;93.00
40960;DHT22;27842;52.272;8.052;2023-09-19T09:29:45;18.20;92.90
40960;DHT22;27842;52.272;8.052;2023-09-19T09:32:27;18.20;92.80
40960;DHT22;27842;52.272;8.052;2023-09-19T09:35:01;18.20;92.70
40960;DHT22;27842;52.272;8.052;2023-09-19T09:37:27;18.30;92.80
40960;DHT22;27842;52.272;8.052;2023-09-19T09:39:57;18.30;92.60
40960;DHT22;27842;52.272;8.052;2023-09-19T09:42:33;18.30;92.70
40960;DHT22;27842;52.272;8.052;2023-09-19T09:47:44;18.30;92.40
40960;DHT22;27842;52.272;8.052;2023-09-19T09:50:25;18.40;92.50
40960;DHT22;27842;52.272;8.052;2023-09-19T09:52:55;18.40;91.80
40960;DHT22;27842;52.272;8.052;2023-09-19T09:55:29;18.50;92.40
40960;DHT22;27842;52.272;8.052;2023-09-19T09:58:17;18.50;92.20
40960;DHT22;27842;52.272;8.052;2023-09-19T10:00:53;18.60;92.10
40960;DHT22;27842;52.272;8.052;2023-09-19T10:03:32;18.60;92.30
40960;DHT22;27842;52.272;8.052;2023-09-19T10:06:00;18.60;91.90
40960;DHT22;27842;52.272;8.052;2023-09-19T10:08:28;18.70;91.90
40960;DHT22;27842;52.272;8.052;2023-09-19T10:10:57;18.70;90.90
40960;DHT22;27842;52.272;8.052;2023-09-19T10:13:31;18.60;91.90
40960;DHT22;27842;52.272;8.052;2023-09-19T10:16:06;18.70;91.90
40960;DHT22;27842;52.272;8.052;2023-09-19T10:18:36;18.80;91.40
40960;DHT22;27842;52.272;8.052;2023-09-19T10:21:04;18.80;91.80
40960;DHT22;27842;52.272;8.052;2023-09-19T10:23:32;18.80;91.60
40960;DHT22;27842;52.272;8.052;2023-09-19T10:26:01;18.80;91.50
40960;DHT22;27842;52.272;8.052;2023-09-19T10:28:28;18.80;91.60
40960;DHT22;27842;52.272;8.052;2023-09-19T10:30:55;18.90;91.60
40960;DHT22;27842;52.272;8.052;2023-09-19T10:33:25;18.90;91.70
40960;DHT22;27842;52.272;8.052;2023-09-19T10:35:58;18.90;91.50
40960;DHT22;27842;52.272;8.052;2023-09-19T10:38:26;18.90;91.20
40960;DHT22;27842;52.272;8.052;2023-09-19T10:40:54;18.90;91.50
40960;DHT22;27842;52.272;8.052;2023-09-19T10:43:21;18.90;91.50
40960;DHT22;27842;52.272;8.052;2023-09-19T10:45:50;18.90;91.60
40960;DHT22;27842;52.272;8.052;2023-09-19T10:48:18;19.00;91.50
40960;DHT22;27842;52.272;8.052;2023-09-19T10:51:01;19.00;91.40
40960;DHT22;27842;52.272;8.052;2023-09-19T10:53:45;19.00;91.30
40960;DHT22;27842;52.272;8.052;2023-09-19T10:56:36;19.00;91.30
40960;DHT22;27842;52.272;8.052;2023-09-19T10:59:11;18.90;91.30
40960;DHT22;27842;52.272;8.052;2023-09-19T11:01:52;18.90;91.10
40960;DHT22;27842;52.272;8.052;2023-09-19T11:04:33;18.90;90.90
40960;DHT22;27842;52.272;8.052;2023-09-19T11:09:53;19.00;91.40
40960;DHT22;27842;52.272;8.052;2023-09-19T11:15:01;19.00;91.40
40960;DHT22;27842;52.272;8.052;2023-09-19T11:17:42;19.00;91.50
40960;DHT22;27842;52.272;8.052;2023-09-19T11:30:42;19.20;91.10
40960;DHT22;27842;52.272;8.052;2023-09-19T11:33:32;19.20;90.70
40960;DHT22;27842;52.272;8.052;2023-09-19T11:36:10;19.30;90.50
40960;DHT22;27842;52.272;8.052;2023-09-19T11:43:48;19.30;90.80
40960;DHT22;27842;52.272;8.052;2023-09-19T11:46:13;19.30;90.80
40960;DHT22;27842;52.272;8.052;2023-09-19T11:48:43;19.30;90.90
40960;DHT22;27842;52.272;8.052;2023-09-19T11:51:14;19.30;90.80
40960;DHT22;27842;52.272;8.052;2023-09-19T11:53:51;19.40;90.90
40960;DHT22;27842;52.272;8.052;2023-09-19T11:56:24;19.40;90.80
40960;DHT22;27842;52.272;8.052;2023-09-19T11:58:52;19.50;90.70
40960;DHT22;27842;52.272;8.052;2023-09-19T12:01:42;19.50;90.80
40960;DHT22;27842;52.272;8.052;2023-09-19T12:04:11;19.50;90.80
40960;DHT22;27842;52.272;8.052;2023-09-19T12:06:37;19.50;90.70
40960;DHT22;27842;52.272;8.052;2023-09-19T12:09:12;19.50;90.30
40960;DHT22;27842;52.272;8.052;2023-09-19T12:11:42;19.60;90.40
40960;DHT22;27842;52.272;8.052;2023-09-19T12:14:10;19.70;90.00
40960;DHT22;27842;52.272;8.052;2023-09-19T12:16:35;19.70;90.20
40960;DHT22;27842;52.272;8.052;2023-09-19T12:19:19;19.70;90.00
40960;DHT22;27842;52.272;8.052;2023-09-19T12:21:54;19.70;89.10
40960;DHT22;27842;52.272;8.052;2023-09-19T12:24:20;19.70;90.00
40960;DHT22;27842;52.272;8.052;2023-09-19T12:26:46;19.80;90.10
40960;DHT22;27842;52.272;8.052;2023-09-19T12:29:21;19.80;89.90
40960;DHT22;27842;52.272;8.052;2023-09-19T12:31:54;19.90;89.80
40960;DHT22;27842;52.272;8.052;2023-09-19T12:34:25;19.90;89.10
40960;DHT22;27842;52.272;8.052;2023-09-19T12:37:06;20.00;89.30
40960;DHT22;27842;52.272;8.052;2023-09-19T12:39:43;20.00;89.10
40960;DHT22;27842;52.272;8.052;2023-09-19T12:42:12;20.10;89.40
40960;DHT22;27842;52.272;8.052;2023-09-19T12:44:46;20.10;89.30
40960;DHT22;27842;52.272;8.052;2023-09-19T12:47:17;20.10;88.40
40960;DHT22;27842;52.272;8.052;2023-09-19T12:50:16;20.10;88.00
40960;DHT22;27842;52.272;8.052;2023-09-19T12:52:52;20.10;88.40
40960;DHT22;27842;52.272;8.052;2023-09-19T12:55:22;20.10;86.60
40960;DHT22;27842;52.272;8.052;2023-09-19T13:00:39;20.10;88.10
40960;DHT22;27842;52.272;8.052;2023-09-19T13:05:58;20.00;88.10
40960;DHT22;27842;52.272;8.052;2023-09-19T13:08:29;20.00;88.20
40960;DHT22;27842;52.272;8.052;2023-09-19T13:11:15;20.00;88.40
40960;DHT22;27842;52.272;8.052;2023-09-19T13:17:04;20.10;88.40
40960;DHT22;27842;52.272;8.052;2023-09-19T13:19:44;20.10;88.10
40960;DHT22;27842;52.272;8.052;2023-09-19T13:25:04;20.10;88.20
40960;DHT22;27842;52.272;8.052;2023-09-19T13:27:32;20.10;88.10
40960;DHT22;27842;52.272;8.052;2023-09-19T13:29:58;20.10;88.20
40960;DHT22;27842;52.272;8.052;2023-09-19T13:32:24;20.10;88.00
40960;DHT22;27842;52.272;8.052;2023-09-19T13:34:50;20.10;88.10
40960;DHT22;27842;52.272;8.052;2023-09-19T13:37:16;20.10;88.20
40960;DHT22;27842;52.272;8.052;2023-09-19T13:39:43;20.10;88.40
40960;DHT22;27842;52.272;8.052;2023-09-19T13:42:13;20.10;87.70
40960;DHT22;27842;52.272;8.052;2023-09-19T13:44:38;20.20;88.20
40960;DHT22;27842;52.272;8.052;2023-09-19T13:47:06;20.20;88.10
40960;DHT22;27842;52.272;8.052;2023-09-19T13:49:35;20.30;88.10
40960;DHT22;27842;52.272;8.052;2023-09-19T13:52:01;20.30;87.60
40960;DHT22;27842;52.272;8.052;2023-09-19T13:54:29;20.30;87.90
40960;DHT22;27842;52.272;8.052;2023-09-19T13:56:55;20.40;87.60
40960;DHT22;27842;52.272;8.052;2023-09-19T13:59:21;20.30;87.00
40960;DHT22;27842;52.272;8.052;2023-09-19T14:01:49;20.30;87.90
40960;DHT22;27842;52.272;8.052;2023-09-19T14:04:14;20.30;88.20
40960;DHT22;27842;52.272;8.052;2023-09-19T14:06:42;20.40;88.10
40960;DHT22;27842;52.272;8.052;2023-09-19T14:09:07;20.50;88.00
40960;DHT22;27842;52.272;8.052;2023-09-19T14:11:33;20.60;88.00
40960;DHT22;27842;52.272;8.052;2023-09-19T14:13:59;20.70;88.00
40960;DHT22;27842;52.272;8.052;2023-09-19T14:16:25;20.80;87.20
40960;DHT22;27842;52.272;8.052;2023-09-19T14:18:57;20.90;87.60
40960;DHT22;27842;52.272;8.052;2023-09-19T14:21:25;21.00;87.00
40960;DHT22;27842;52.272;8.052;2023-09-19T14:23:52;21.00;87.20
40960;DHT22;27842;52.272;8.052;2023-09-19T14:26:20;21.00;87.30
40960;DHT22;27842;52.272;8.052;2023-09-19T14:28:45;21.00;87.00
40960;DHT22;27842;52.272;8.052;2023-09-19T14:31:11;20.90;86.70
40960;DHT22;27842;52.272;8.052;2023-09-19T14:33:37;20.90;87.10
40960;DHT22;27842;52.272;8.052;2023-09-19T14:36:08;20.80;86.80
40960;DHT22;27842;52.272;8.052;2023-09-19T14:38:37;20.80;86.60
40960;DHT22;27842;52.272;8.052;2023-09-19T14:41:04;20.70;86.80
40960;DHT22;27842;52.272;8.052;2023-09-19T14:43:30;20.60;86.30
40960;DHT22;27842;52.272;8.052;2023-09-19T14:46:04;20.60;85.80
40960;DHT22;27842;52.272;8.052;2023-09-19T14:48:30;20.40;85.90
40960;DHT22;27842;52.272;8.052;2023-09-19T14:51:04;20.40;86.90
40960;DHT22;27842;52.272;8.052;2023-09-19T14:53:33;20.30;86.30
40960;DHT22;27842;52.272;8.052;2023-09-19T14:56:04;20.30;85.80
40960;DHT22;27842;52.272;8.052;2023-09-19T14:58:31;20.20;86.30
40960;DHT22;27842;52.272;8.052;2023-09-19T15:01:08;20.20;86.20
40960;DHT22;27842;52.272;8.052;2023-09-19T15:03:36;20.20;85.40
40960;DHT22;27842;52.272;8.052;2023-09-19T15:06:09;20.20;86.60
40960;DHT22;27842;52.272;8.052;2023-09-19T15:08:39;20.20;86.00
40960;DHT22;27842;52.272;8.052;2023-09-19T15:11:09;20.10;86.40
40960;DHT22;27842;52.272;8.052;2023-09-19T15:13:36;20.10;86.50
40960;DHT22;27842;52.272;8.052;2023-09-19T15:16:04;20.10;86.60
40960;DHT22;27842;52.272;8.052;2023-09-19T15:18:30;20.10;86.90
40960;DHT22;27842;52.272;8.052;2023-09-19T15:20:57;20.00;86.90
40960;DHT22;27842;52.272;8.052;2023-09-19T15:23:25;20.00;87.10
40960;DHT22;27842;52.272;8.052;2023-09-19T15:25:51;20.00;87.10
40960;DHT22;27842;52.272;8.052;2023-09-19T15:28:18;20.00;86.80
40960;DHT22;27842;52.272;8.052;2023-09-19T15:30:48;20.00;86.90
40960;DHT22;27842;52.272;8.052;2023-09-19T15:33:14;20.00;86.90
40960;DHT22;27842;52.272;8.052;2023-09-19T15:35:40;20.00;86.80
40960;DHT22;27842;52.272;8.052;2023-09-19T15:38:05;19.90;87.10
40960;DHT22;27842;52.272;8.052;2023-09-19T15:40:32;20.00;86.80
40960;DHT22;27842;52.272;8.052;2023-09-19T15:42:58;19.90;86.80
40960;DHT22;27842;52.272;8.052;2023-09-19T15:45:25;19.90;87.10
40960;DHT22;27842;52.272;8.052;2023-09-19T15:47:51;19.90;87.00
40960;DHT22;27842;52.272;8.052;2023-09-19T15:50:17;19.90;86.80
40960;DHT22;27842;52.272;8.052;2023-09-19T15:52:42;19.90;86.90
40960;DHT22;27842;52.272;8.052;2023-09-19T15:55:08;19.90;86.50
40960;DHT22;27842;52.272;8.052;2023-09-19T15:57:36;19.90;86.70
40960;DHT22;27842;52.272;8.052;2023-09-19T16:00:03;19.90;87.00
40960;DHT22;27842;52.272;8.052;2023-09-19T16:02:30;19.90;87.10
40960;DHT22;27842;52.272;8.052;2023-09-19T16:04:56;19.90;87.10
40960;DHT22;27842;52.272;8.052;2023-09-19T16:07:21;19.90;87.10
40960;DHT22;27842;52.272;8.052;2023-09-19T16:09:47;19.90;87.20
40960;DHT22;27842;52.272;8.052;2023-09-19T16:12:12;19.80;87.10
40960;DHT22;27842;52.272;8.052;2023-09-19T16:14:40;19.80;87.30
40960;DHT22;27842;52.272;8.052;2023-09-19T16:17:06;19.80;87.30
40960;DHT22;27842;52.272;8.052;2023-09-19T16:19:33;19.80;87.20
40960;DHT22;27842;52.272;8.052;2023-09-19T16:21:59;19.80;87.40
40960;DHT22;27842;52.272;8.052;2023-09-19T16:24:28;19.80;87.50
40960;DHT22;27842;52.272;8.052;2023-09-19T16:26:54;19.80;87.20